Time;durP1;ratioP1;P1;durP2;ratioP2;P2;SDS_P1;SDS_P2;PMS_P1;PMS_P2;Temp;Humidity;BMP_temperature;BMP_pressure;BME280_temperature;BME280_humidity;BME280_pressure;Samples;Min_cycle;Max_cycle;Signal;HPM_P1;HPM_P2
2021/09/03 00:00:38;;;;;;;12.40;5.57;;;;;;;;;;10402778;28;20025;-88
2021/09/03 00:05:38;;;;;;;8.93;4.97;;;;;;;;;;10424565;28;20109;-88
2021/09/03 00:10:38;;;;;;;10.07;5.50;;;;;;;;;;10444090;28;20468;-89
2021/09/03 00:15:39;;;;;;;11.43;5.10;;;;;;;;;;10428345;28;20025;-89
2021/09/03 00:20:39;;;;;;;15.38;5.18;;;;;;;;;;10447290;28;20454;-88
2021/09/03 00:25:40;;;;;;;8.98;5.50;;;;;;;;;;10443558;28;20025;-88
2021/09/03 00:30:40;;;;;;;9.33;4.73;;;;;;;;;;10419720;28;20033;-89
2021/09/03 00:35:41;;;;;;;11.07;5.07;;;;;;;;;;10430462;28;20442;-88
2021/09/03 00:40:41;;;;;;;8.73;5.10;;;;;;;;;;10445867;28;20123;-88
2021/09/03 00:45:41;;;;;;;9.50;4.87;;;;;;;;;;10419283;28;20029;-89
2021/09/03 00:50:43;;;;;;;6.77;4.57;;;;;;;;;;10431252;28;20040;-89
2021/09/03 00:55:44;;;;;;;6.45;4.45;;;;;;;;;;10402076;28;20436;-90
2021/09/03 01:00:45;;;;;;;7.03;4.63;;;;;;;;;;10414580;28;20043;-89
2021/09/03 01:05:45;;;;;;;9.00;4.33;;;;;;;;;;10442626;28;20108;-92
2021/09/03 01:10:46;;;;;;;6.77;4.33;;;;;;;;;;10418664;28;20017;-91
2021/09/03 01:15:46;;;;;;;6.20;4.20;;;;;;;;;;10436979;28;20449;-89
2021/09/03 01:20:46;;;;;;;11.00;4.53;;;;;;;;;;10437021;28;20550;-89
2021/09/03 01:25:47;;;;;;;9.07;4.73;;;;;;;;;;10451032;28;20047;-89
2021/09/03 01:30:47;;;;;;;5.03;3.87;;;;;;;;;;10406585;28;20538;-89
2021/09/03 01:35:48;;;;;;;5.37;4.27;;;;;;;;;;10421747;28;20526;-89
2021/09/03 01:40:49;;;;;;;6.97;4.50;;;;;;;;;;10426150;28;20455;-90
2021/09/03 01:45:49;;;;;;;7.55;4.28;;;;;;;;;;10385941;28;20162;-90
2021/09/03 01:50:50;;;;;;;8.18;4.22;;;;;;;;;;10428321;28;20589;-89
2021/09/03 01:55:50;;;;;;;5.95;3.70;;;;;;;;;;10398816;28;20044;-90
2021/09/03 02:00:51;;;;;;;5.53;3.83;;;;;;;;;;10398661;28;20032;-90
2021/09/03 02:05:51;;;;;;;7.93;3.67;;;;;;;;;;10416315;28;20033;-90
2021/09/03 02:10:52;;;;;;;7.43;3.60;;;;;;;;;;10415318;28;20569;-90
2021/09/03 02:15:52;;;;;;;6.55;3.67;;;;;;;;;;10398728;28;20040;-90
2021/09/03 02:20:52;;;;;;;10.93;4.67;;;;;;;;;;10398405;28;20029;-88
2021/09/03 02:25:53;;;;;;;9.17;4.07;;;;;;;;;;10432531;28;20112;-88
2021/09/03 02:30:53;;;;;;;8.20;3.83;;;;;;;;;;10410941;28;20033;-87
2021/09/03 02:35:54;;;;;;;7.18;3.90;;;;;;;;;;10437440;28;20089;-89
2021/09/03 02:40:54;;;;;;;6.72;3.65;;;;;;;;;;10429907;28;20068;-87
2021/09/03 02:45:54;;;;;;;7.47;3.77;;;;;;;;;;10438596;28;20037;-88
2021/09/03 02:50:55;;;;;;;6.30;3.70;;;;;;;;;;10411546;28;20040;-88
2021/09/03 02:55:56;;;;;;;7.00;3.80;;;;;;;;;;10415841;28;20037;-88
2021/09/03 03:00:57;;;;;;;7.67;3.77;;;;;;;;;;10444111;28;20036;-88
2021/09/03 03:05:57;;;;;;;5.10;3.33;;;;;;;;;;10440539;28;20100;-89
2021/09/03 03:10:59;;;;;;;7.83;3.73;;;;;;;;;;10415009;28;20033;-89
2021/09/03 03:15:59;;;;;;;5.88;3.28;;;;;;;;;;10428140;28;20569;-89
2021/09/03 03:21:00;;;;;;;4.80;3.47;;;;;;;;;;10426799;28;20021;-91
2021/09/03 03:26:02;;;;;;;5.38;3.20;;;;;;;;;;10420168;28;20114;-91
2021/09/03 03:31:02;;;;;;;5.10;3.05;;;;;;;;;;10430896;28;20030;-90
2021/09/03 03:36:03;;;;;;;5.80;3.30;;;;;;;;;;10428079;28;20030;-89
2021/09/03 03:41:03;;;;;;;4.60;3.42;;;;;;;;;;10396160;28;20072;-89
2021/09/03 03:46:04;;;;;;;4.97;3.33;;;;;;;;;;10447203;28;20036;-88
2021/09/03 03:51:04;;;;;;;5.87;2.97;;;;;;;;;;10422809;28;20029;-89
2021/09/03 03:56:05;;;;;;;8.50;3.53;;;;;;;;;;10432400;28;20522;-89
2021/09/03 04:01:05;;;;;;;5.45;3.20;;;;;;;;;;10434991;28;20034;-90
2021/09/03 04:06:06;;;;;;;4.03;3.17;;;;;;;;;;10448222;28;20033;-87
2021/09/03 04:11:06;;;;;;;3.33;2.70;;;;;;;;;;10449756;28;20446;-92
2021/09/03 04:16:06;;;;;;;5.93;3.37;;;;;;;;;;10430731;28;20443;-92
2021/09/03 04:21:07;;;;;;;5.57;3.40;;;;;;;;;;10430097;28;20017;-90
2021/09/03 04:26:07;;;;;;;5.40;3.00;;;;;;;;;;10439544;28;20116;-90
2021/09/03 04:31:08;;;;;;;6.10;3.10;;;;;;;;;;10439209;28;20491;-89
2021/09/03 04:36:08;;;;;;;7.93;3.20;;;;;;;;;;10419858;28;20445;-89
2021/09/03 04:41:08;;;;;;;6.40;3.47;;;;;;;;;;10419414;28;20541;-90
2021/09/03 04:46:09;;;;;;;8.07;3.37;;;;;;;;;;10433254;28;20025;-88
2021/09/03 04:51:09;;;;;;;5.03;3.00;;;;;;;;;;10437288;28;20446;-87
2021/09/03 04:56:09;;;;;;;4.00;2.83;;;;;;;;;;10446223;28;20116;-89
2021/09/03 05:01:10;;;;;;;5.27;3.00;;;;;;;;;;10428393;28;20112;-86
2021/09/03 05:06:10;;;;;;;4.67;2.73;;;;;;;;;;10417488;28;20037;-88
2021/09/03 05:11:11;;;;;;;4.60;2.80;;;;;;;;;;10428292;28;20048;-91
2021/09/03 05:16:11;;;;;;;4.33;2.77;;;;;;;;;;10399816;28;20056;-90
2021/09/03 05:21:12;;;;;;;4.18;2.70;;;;;;;;;;10428417;28;20462;-89
2021/09/03 05:26:12;;;;;;;4.23;3.30;;;;;;;;;;10448732;28;20033;-86
2021/09/03 05:31:13;;;;;;;3.25;2.88;;;;;;;;;;10416946;28;20463;-88
2021/09/03 05:36:14;;;;;;;3.47;2.40;;;;;;;;;;10416255;28;20040;-88
2021/09/03 05:41:14;;;;;;;3.78;2.70;;;;;;;;;;10423370;28;20537;-88
2021/09/03 05:46:14;;;;;;;3.90;2.80;;;;;;;;;;10457346;28;20037;-89
2021/09/03 05:51:15;;;;;;;5.70;2.93;;;;;;;;;;10457884;28;20986;-90
2021/09/03 05:56:15;;;;;;;5.40;3.00;;;;;;;;;;10448544;28;20036;-87
2021/09/03 06:01:15;;;;;;;4.80;2.80;;;;;;;;;;10457233;28;20979;-91
2021/09/03 06:06:16;;;;;;;4.23;2.63;;;;;;;;;;10453454;28;20530;-90
2021/09/03 06:11:16;;;;;;;3.83;3.00;;;;;;;;;;10446363;28;20467;-91
2021/09/03 06:16:17;;;;;;;3.07;2.67;;;;;;;;;;10431177;28;20021;-91
2021/09/03 06:21:17;;;;;;;5.87;3.17;;;;;;;;;;10439757;28;20032;-95
2021/09/03 06:26:18;;;;;;;3.58;2.55;;;;;;;;;;10399304;28;20029;-92
2021/09/03 06:31:18;;;;;;;7.03;2.67;;;;;;;;;;10419201;28;20124;-93
2021/09/03 06:36:19;;;;;;;19.47;2.50;;;;;;;;;;10413109;28;20474;-93
2021/09/03 06:41:19;;;;;;;5.57;2.73;;;;;;;;;;10403958;28;20053;-93
2021/09/03 06:46:19;;;;;;;2.93;2.43;;;;;;;;;;10403551;28;20152;-92
2021/09/03 06:51:20;;;;;;;6.03;2.80;;;;;;;;;;10402571;28;20033;-92
2021/09/03 06:56:20;;;;;;;3.60;2.67;;;;;;;;;;10436404;28;21014;-92
2021/09/03 07:01:20;;;;;;;4.03;2.53;;;;;;;;;;10398902;28;20466;-91
2021/09/03 07:06:21;;;;;;;3.67;2.43;;;;;;;;;;10416761;28;20117;-92
2021/09/03 07:11:21;;;;;;;6.83;2.80;;;;;;;;;;10432324;28;20094;-93
2021/09/03 07:16:22;;;;;;;3.50;2.70;;;;;;;;;;10391716;23;20054;-92
2021/09/03 07:21:23;;;;;;;4.55;2.80;;;;;;;;;;10356584;28;20034;-92
2021/09/03 07:26:24;;;;;;;3.05;2.63;;;;;;;;;;10348289;28;20030;-92
2021/09/03 07:31:24;;;;;;;4.10;2.80;;;;;;;;;;10345580;28;20455;-91
2021/09/03 07:36:25;;;;;;;3.53;2.35;;;;;;;;;;10395819;28;20460;-91
2021/09/03 07:41:25;;;;;;;3.37;2.30;;;;;;;;;;10387907;22;20483;-96
2021/09/03 07:46:25;;;;;;;6.60;3.10;;;;;;;;;;10421004;28;20451;-96
2021/09/03 07:51:26;;;;;;;3.03;2.50;;;;;;;;;;10415974;28;20115;-96
2021/09/03 07:56:26;;;;;;;4.20;2.70;;;;;;;;;;10413968;28;20472;-96
2021/09/03 08:01:26;;;;;;;2.50;2.30;;;;;;;;;;10409783;28;20025;-95
2021/09/03 08:06:27;;;;;;;7.30;2.75;;;;;;;;;;10428439;28;20115;-92
2021/09/03 08:11:27;;;;;;;4.20;2.70;;;;;;;;;;10447740;28;20417;-89
2021/09/03 08:16:28;;;;;;;4.90;3.25;;;;;;;;;;10462804;28;20041;-92
2021/09/03 08:21:28;;;;;;;5.00;2.60;;;;;;;;;;10459311;28;20033;-95
2021/09/03 08:26:29;;;;;;;4.97;2.90;;;;;;;;;;10399211;28;20032;-92
2021/09/03 08:31:30;;;;;;;12.13;2.72;;;;;;;;;;10427385;28;20047;-93
2021/09/03 08:36:30;;;;;;;4.38;2.80;;;;;;;;;;10442975;28;20025;-93
2021/09/03 08:41:31;;;;;;;5.93;2.50;;;;;;;;;;10442479;28;20478;-91
2021/09/03 08:46:33;;;;;;;25.80;4.00;;;;;;;;;;10424917;28;20021;-88
2021/09/03 08:51:34;;;;;;;6.72;3.80;;;;;;;;;;10416334;28;20034;-86
2021/09/03 08:56:34;;;;;;;8.10;3.87;;;;;;;;;;10453933;28;20021;-87
2021/09/03 09:01:35;;;;;;;10.93;4.10;;;;;;;;;;10459629;28;20032;-87
2021/09/03 09:06:35;;;;;;;6.97;4.00;;;;;;;;;;10451885;28;20067;-84
2021/09/03 09:11:37;;;;;;;16.83;4.67;;;;;;;;;;10454370;28;20068;-85
2021/09/03 09:16:37;;;;;;;13.85;4.18;;;;;;;;;;10436076;28;20028;-85
2021/09/03 09:21:39;;;;;;;13.48;4.15;;;;;;;;;;10444842;28;20432;-85
2021/09/03 09:26:41;;;;;;;9.70;4.57;;;;;;;;;;10427102;28;20033;-84
2021/09/03 09:31:42;;;;;;;10.55;3.85;;;;;;;;;;10444547;28;20489;-85
2021/09/03 09:36:43;;;;;;;17.02;4.10;;;;;;;;;;10443538;28;20036;-85
2021/09/03 09:41:44;;;;;;;11.90;3.97;;;;;;;;;;10412000;28;20071;-84
2021/09/03 09:46:45;;;;;;;6.93;3.22;;;;;;;;;;10429766;28;20031;-84
2021/09/03 09:51:50;;;;;;;12.37;3.93;;;;;;;;;;10433289;28;20052;-85
2021/09/03 09:56:53;;;;;;;5.40;3.47;;;;;;;;;;10416197;28;20028;-87
2021/09/03 10:01:55;;;;;;;7.28;3.92;;;;;;;;;;10453804;28;20352;-85
2021/09/03 10:07:01;;;;;;;7.90;4.00;;;;;;;;;;10456470;28;20037;-87
2021/09/03 10:12:02;;;;;;;6.03;3.63;;;;;;;;;;10449507;28;20099;-88
2021/09/03 10:17:03;;;;;;;6.93;3.70;;;;;;;;;;10423896;28;20033;-86
2021/09/03 10:22:05;;;;;;;15.32;3.97;;;;;;;;;;10439846;28;20021;-86
2021/09/03 10:27:06;;;;;;;10.15;3.60;;;;;;;;;;10427549;28;20037;-88
2021/09/03 10:32:17;;;;;;;6.03;3.30;;;;;;;;;;10415755;28;20033;-88
2021/09/03 10:37:23;;;;;;;10.43;3.90;;;;;;;;;;10415579;28;20040;-87
2021/09/03 10:42:49;;;;;;;4.80;3.60;;;;;;;;;;10429550;28;20143;-86
2021/09/03 10:48:07;;;;;;;4.43;3.70;;;;;;;;;;10416722;28;20067;-88
2021/09/03 10:53:07;;;;;;;12.70;4.28;;;;;;;;;;10412263;28;20028;-85
2021/09/03 10:58:08;;;;;;;5.30;4.47;;;;;;;;;;10428770;28;20036;-85
2021/09/03 11:03:36;;;;;;;5.53;4.13;;;;;;;;;;10432281;28;20477;-87
2021/09/03 11:08:45;;;;;;;4.90;4.00;;;;;;;;;;10444175;28;20473;-87
2021/09/03 11:13:47;;;;;;;6.00;3.80;;;;;;;;;;10422602;28;20029;-86
2021/09/03 11:19:30;;;;;;;3.97;3.47;;;;;;;;;;10459254;28;20037;-87
2021/09/03 11:24:41;;;;;;;6.15;3.75;;;;;;;;;;10413223;28;20099;-86
2021/09/03 11:29:47;;;;;;;5.47;3.65;;;;;;;;;;10450462;28;20040;-85
2021/09/03 11:35:02;;;;;;;5.55;3.70;;;;;;;;;;10435699;28;20043;-85
2021/09/03 11:40:11;;;;;;;4.95;3.67;;;;;;;;;;10422566;28;20029;-88
2021/09/03 11:45:18;;;;;;;6.90;3.60;;;;;;;;;;10447307;28;20049;-87
2021/09/03 11:50:29;;;;;;;5.25;3.20;;;;;;;;;;10456613;28;20076;-88
2021/09/03 11:55:34;;;;;;;5.80;3.78;;;;;;;;;;10449745;28;20547;-88
2021/09/03 12:00:38;;;;;;;5.45;3.67;;;;;;;;;;10444234;28;20029;-88
2021/09/03 12:05:39;;;;;;;3.95;3.58;;;;;;;;;;10448554;28;20040;-88
2021/09/03 12:10:42;;;;;;;5.95;3.90;;;;;;;;;;10439029;28;20044;-88
2021/09/03 12:15:44;;;;;;;5.03;3.80;;;;;;;;;;10419270;28;20038;-88
2021/09/03 12:21:00;;;;;;;5.70;4.07;;;;;;;;;;10425761;28;20052;-87
2021/09/03 12:26:36;;;;;;;5.28;3.58;;;;;;;;;;10437468;28;20025;-88
2021/09/03 12:31:37;;;;;;;8.55;3.60;;;;;;;;;;10432728;28;20050;-90
2021/09/03 12:36:40;;;;;;;5.05;3.28;;;;;;;;;;10436034;28;20030;-89
2021/09/03 12:41:43;;;;;;;6.93;3.83;;;;;;;;;;10401975;28;20058;-91
2021/09/03 12:46:44;;;;;;;4.78;3.47;;;;;;;;;;10422047;28;20036;-91
2021/09/03 12:51:50;;;;;;;5.80;3.50;;;;;;;;;;10433848;28;20112;-88
2021/09/03 12:56:52;;;;;;;8.10;3.50;;;;;;;;;;10423572;28;20079;-86
2021/09/03 13:01:53;;;;;;;4.57;3.25;;;;;;;;;;10442325;28;20041;-87
2021/09/03 13:06:56;;;;;;;7.43;3.42;;;;;;;;;;10423933;28;20029;-92
2021/09/03 13:11:59;;;;;;;7.00;3.42;;;;;;;;;;10414934;28;20029;-92
2021/09/03 13:16:59;;;;;;;5.35;3.80;;;;;;;;;;10422597;28;20108;-88
2021/09/03 13:22:00;;;;;;;7.38;3.53;;;;;;;;;;10445815;28;20523;-89
2021/09/03 13:27:00;;;;;;;5.20;3.30;;;;;;;;;;10442881;28;20060;-87
2021/09/03 13:32:00;;;;;;;6.07;3.63;;;;;;;;;;10417590;28;20076;-87
2021/09/03 13:37:01;;;;;;;5.07;3.77;;;;;;;;;;10428780;28;20447;-87
2021/09/03 13:42:01;;;;;;;6.72;4.45;;;;;;;;;;10416241;28;20148;-87
2021/09/03 13:47:02;;;;;;;4.57;3.38;;;;;;;;;;10415570;28;20045;-88
2021/09/03 13:52:03;;;;;;;8.18;4.18;;;;;;;;;;10417286;28;20117;-87
2021/09/03 13:57:03;;;;;;;6.30;3.45;;;;;;;;;;10422563;28;20498;-87
2021/09/03 14:02:04;;;;;;;10.02;4.20;;;;;;;;;;10425918;28;20163;-88
2021/09/03 14:07:05;;;;;;;7.47;3.90;;;;;;;;;;10419635;28;20026;-87
2021/09/03 14:12:07;;;;;;;9.98;3.90;;;;;;;;;;10456802;28;20374;-87
2021/09/03 14:17:07;;;;;;;4.32;3.70;;;;;;;;;;10455197;28;20047;-88
2021/09/03 14:22:09;;;;;;;7.90;3.88;;;;;;;;;;10445743;28;20039;-86
2021/09/03 14:27:11;;;;;;;4.72;3.22;;;;;;;;;;10443087;28;20455;-87
2021/09/03 14:32:12;;;;;;;4.28;3.42;;;;;;;;;;10457298;28;20033;-87
2021/09/03 14:37:12;;;;;;;5.17;3.50;;;;;;;;;;10453941;28;20032;-87
2021/09/03 14:42:12;;;;;;;4.00;3.00;;;;;;;;;;10397711;28;20081;-87
2021/09/03 14:47:13;;;;;;;9.87;3.77;;;;;;;;;;10415086;28;20033;-88
2021/09/03 14:52:13;;;;;;;3.80;3.20;;;;;;;;;;10415217;28;20119;-86
2021/09/03 14:57:14;;;;;;;5.57;3.25;;;;;;;;;;10415830;28;20029;-88
2021/09/03 15:02:14;;;;;;;6.57;2.95;;;;;;;;;;10415370;28;20526;-86
2021/09/03 15:07:15;;;;;;;6.03;3.33;;;;;;;;;;10415404;28;20033;-86
2021/09/03 15:12:16;;;;;;;3.43;2.80;;;;;;;;;;10454355;28;20411;-85
2021/09/03 15:17:16;;;;;;;3.60;3.10;;;;;;;;;;10455813;28;20033;-85
2021/09/03 15:22:17;;;;;;;3.80;3.40;;;;;;;;;;10432083;28;20223;-85
2021/09/03 15:27:17;;;;;;;4.15;3.30;;;;;;;;;;10446418;28;20033;-85
2021/09/03 15:32:18;;;;;;;6.00;3.10;;;;;;;;;;10438442;28;20071;-84
2021/09/03 15:37:18;;;;;;;4.95;3.40;;;;;;;;;;10413920;28;20454;-86
2021/09/03 15:42:18;;;;;;;7.07;4.15;;;;;;;;;;10395590;28;20054;-86
2021/09/03 15:47:19;;;;;;;6.93;3.70;;;;;;;;;;10414633;28;20026;-86
2021/09/03 15:52:19;;;;;;;9.83;3.87;;;;;;;;;;10429791;28;20049;-85
2021/09/03 15:57:20;;;;;;;4.83;3.30;;;;;;;;;;10463371;28;20518;-84
2021/09/03 16:02:20;;;;;;;8.43;4.13;;;;;;;;;;10462250;28;20040;-84
2021/09/03 16:07:20;;;;;;;6.83;3.67;;;;;;;;;;10423940;28;20926;-84
2021/09/03 16:12:21;;;;;;;4.57;3.40;;;;;;;;;;10454487;28;20471;-84
2021/09/03 16:17:21;;;;;;;6.82;3.97;;;;;;;;;;10459292;28;20047;-82
2021/09/03 16:22:22;;;;;;;5.97;3.70;;;;;;;;;;10436062;28;20052;-83
2021/09/03 16:27:22;;;;;;;12.07;3.67;;;;;;;;;;10425538;28;20513;-83
2021/09/03 16:32:22;;;;;;;5.53;3.60;;;;;;;;;;10438169;28;20500;-82
2021/09/03 16:37:23;;;;;;;4.43;3.30;;;;;;;;;;10429867;28;20036;-86
2021/09/03 16:42:23;;;;;;;8.77;3.70;;;;;;;;;;10421596;28;20068;-84
2021/09/03 16:47:24;;;;;;;11.87;3.87;;;;;;;;;;10429925;28;20419;-85
2021/09/03 16:52:24;;;;;;;5.50;3.75;;;;;;;;;;10434377;28;20057;-84
2021/09/03 16:57:25;;;;;;;7.27;3.93;;;;;;;;;;10460076;28;20090;-84
2021/09/03 17:02:25;;;;;;;5.03;3.63;;;;;;;;;;10417487;28;20029;-87
2021/09/03 17:07:27;;;;;;;5.07;3.83;;;;;;;;;;10431145;28;20079;-83
2021/09/03 17:12:28;;;;;;;6.80;3.92;;;;;;;;;;10459884;28;20040;-84
2021/09/03 17:17:28;;;;;;;7.60;3.43;;;;;;;;;;10458889;28;20574;-84
2021/09/03 17:22:28;;;;;;;8.67;3.70;;;;;;;;;;10420498;28;20059;-83
2021/09/03 17:27:29;;;;;;;8.63;3.73;;;;;;;;;;10437796;28;20083;-84
2021/09/03 17:32:29;;;;;;;8.93;4.00;;;;;;;;;;10453985;28;21012;-82
2021/09/03 17:37:29;;;;;;;5.57;3.57;;;;;;;;;;10431055;28;20458;-84
2021/09/03 17:42:30;;;;;;;7.37;4.10;;;;;;;;;;10430589;28;20486;-84
2021/09/03 17:47:30;;;;;;;4.93;3.60;;;;;;;;;;10434104;28;20111;-83
2021/09/03 17:52:31;;;;;;;5.73;3.57;;;;;;;;;;10442779;28;20029;-83
2021/09/03 17:57:31;;;;;;;4.32;3.42;;;;;;;;;;10431833;28;20056;-83
2021/09/03 18:02:31;;;;;;;8.43;3.80;;;;;;;;;;10457159;28;20032;-83
2021/09/03 18:07:32;;;;;;;6.97;3.60;;;;;;;;;;10429189;28;20125;-83
2021/09/03 18:12:33;;;;;;;6.87;3.70;;;;;;;;;;10418512;28;20049;-84
2021/09/03 18:17:33;;;;;;;6.15;3.38;;;;;;;;;;10443472;28;20065;-83
2021/09/03 18:22:33;;;;;;;4.73;3.50;;;;;;;;;;10431450;28;20033;-83
2021/09/03 18:27:34;;;;;;;6.17;3.57;;;;;;;;;;10440494;28;20045;-84
2021/09/03 18:32:35;;;;;;;6.03;3.73;;;;;;;;;;10444573;28;20478;-87
2021/09/03 18:37:36;;;;;;;6.95;3.80;;;;;;;;;;10436892;28;20558;-85
2021/09/03 18:42:37;;;;;;;10.13;4.20;;;;;;;;;;10425865;28;20148;-84
2021/09/03 18:47:37;;;;;;;6.87;3.70;;;;;;;;;;10404766;28;20880;-84
2021/09/03 18:52:38;;;;;;;4.87;3.90;;;;;;;;;;10398924;28;20045;-84
2021/09/03 18:57:38;;;;;;;9.70;4.40;;;;;;;;;;10390738;28;20835;-85
2021/09/03 19:02:39;;;;;;;5.43;3.93;;;;;;;;;;10385608;28;20026;-83
2021/09/03 19:07:39;;;;;;;9.20;4.23;;;;;;;;;;10374686;28;20068;-88
2021/09/03 19:12:42;;;;;;;6.93;4.13;;;;;;;;;;10410738;28;20033;-88
2021/09/03 19:17:43;;;;;;;7.57;4.18;;;;;;;;;;10411790;28;20128;-84
2021/09/03 19:22:43;;;;;;;15.05;5.97;;;;;;;;;;10409705;28;20120;-87
2021/09/03 19:27:44;;;;;;;12.52;4.95;;;;;;;;;;10393324;28;20120;-87
2021/09/03 19:32:44;;;;;;;13.57;5.77;;;;;;;;;;10400184;28;20384;-87
2021/09/03 19:37:47;;;;;;;19.10;6.30;;;;;;;;;;10384771;28;20022;-88
2021/09/03 19:42:47;;;;;;;13.45;6.38;;;;;;;;;;10452482;22;20057;-88
2021/09/03 19:47:48;;;;;;;10.80;6.57;;;;;;;;;;10443717;28;20030;-87
2021/09/03 19:52:48;;;;;;;14.03;6.70;;;;;;;;;;10455434;28;20459;-87
2021/09/03 19:57:50;;;;;;;14.23;6.55;;;;;;;;;;10443715;28;20379;-87
2021/09/03 20:02:50;;;;;;;13.88;7.25;;;;;;;;;;10461413;28;20094;-87
2021/09/03 20:07:50;;;;;;;13.43;5.90;;;;;;;;;;10460889;28;20430;-90
2021/09/03 20:12:51;;;;;;;13.40;5.50;;;;;;;;;;10460665;28;20079;-89
2021/09/03 20:17:51;;;;;;;11.97;6.03;;;;;;;;;;10459234;28;20111;-88
2021/09/03 20:22:51;;;;;;;17.23;5.87;;;;;;;;;;10458970;28;20025;-88
2021/09/03 20:27:52;;;;;;;11.87;5.40;;;;;;;;;;10458668;28;20466;-88
2021/09/03 20:32:52;;;;;;;7.47;5.20;;;;;;;;;;10457546;28;20053;-88
2021/09/03 20:37:53;;;;;;;6.97;4.83;;;;;;;;;;10458311;28;20044;-90
2021/09/03 20:42:53;;;;;;;9.97;5.50;;;;;;;;;;10436323;28;20184;-91
2021/09/03 20:47:53;;;;;;;7.47;5.20;;;;;;;;;;10388073;28;20038;-90
2021/09/03 20:52:54;;;;;;;7.97;5.53;;;;;;;;;;10370238;28;20060;-87
2021/09/03 20:57:54;;;;;;;7.50;5.43;;;;;;;;;;10417655;28;20030;-89
2021/09/03 21:02:54;;;;;;;10.40;5.10;;;;;;;;;;10415882;28;20064;-88
2021/09/03 21:07:55;;;;;;;6.93;4.90;;;;;;;;;;10414719;28;20605;-88
2021/09/03 21:12:55;;;;;;;8.13;5.33;;;;;;;;;;10413942;28;20037;-88
2021/09/03 21:17:55;;;;;;;7.77;5.27;;;;;;;;;;10411330;28;20049;-88
2021/09/03 21:22:57;;;;;;;6.43;4.73;;;;;;;;;;10417191;28;20490;-89
2021/09/03 21:27:57;;;;;;;6.70;4.88;;;;;;;;;;10406416;28;20464;-85
2021/09/03 21:32:58;;;;;;;8.87;4.47;;;;;;;;;;10409690;28;20052;-88
2021/09/03 21:37:58;;;;;;;10.30;4.83;;;;;;;;;;10408727;28;20112;-88
2021/09/03 21:42:59;;;;;;;9.18;4.55;;;;;;;;;;10417082;28;20057;-92
2021/09/03 21:47:59;;;;;;;7.47;4.47;;;;;;;;;;10390290;28;20152;-90
2021/09/03 21:52:59;;;;;;;6.10;4.30;;;;;;;;;;10388170;28;20025;-86
2021/09/03 21:58:00;;;;;;;8.37;4.67;;;;;;;;;;10405230;28;20436;-85
2021/09/03 22:03:00;;;;;;;4.63;3.93;;;;;;;;;;10407135;28;20112;-86
2021/09/03 22:08:00;;;;;;;6.73;4.30;;;;;;;;;;10410404;28;20540;-86
2021/09/03 22:13:01;;;;;;;7.03;5.00;;;;;;;;;;10414285;28;20033;-86
2021/09/03 22:18:03;;;;;;;6.87;4.77;;;;;;;;;;10414173;28;20991;-85
2021/09/03 22:23:05;;;;;;;7.28;4.25;;;;;;;;;;10413724;28;20466;-86
2021/09/03 22:28:06;;;;;;;7.70;4.20;;;;;;;;;;10412226;28;20155;-85
2021/09/03 22:33:06;;;;;;;4.75;4.03;;;;;;;;;;10412474;28;20164;-86
2021/09/03 22:38:06;;;;;;;6.30;4.07;;;;;;;;;;10400731;28;20760;-85
2021/09/03 22:43:07;;;;;;;6.87;3.97;;;;;;;;;;10406750;28;20486;-85
2021/09/03 23:12:39;;;;;;;15.07;4.78;;;;;;;;;;10464091;28;20402;-88
